createdAt,value
2018-07-22T00:00:24.050Z,0.00
2018-07-22T00:01:23.900Z,0.00
2018-07-22T00:02:23.884Z,0.00
2018-07-22T00:03:23.786Z,0.00
2018-07-22T00:04:23.760Z,0.00
2018-07-22T00:05:23.755Z,0.00
2018-07-22T00:06:24.340Z,0.00
2018-07-22T00:07:23.686Z,0.00
2018-07-22T00:08:23.699Z,0.00
2018-07-22T00:09:23.695Z,0.00
2018-07-22T00:10:23.651Z,0.00
2018-07-22T00:11:44.778Z,0.00
2018-07-22T00:12:23.639Z,0.00
2018-07-22T00:13:23.626Z,0.00
2018-07-22T00:14:23.648Z,0.00
2018-07-22T00:15:23.597Z,0.00
2018-07-22T00:16:23.606Z,0.00
2018-07-22T00:17:23.611Z,0.00
2018-07-22T00:18:23.553Z,0.00
2018-07-22T00:19:23.552Z,0.00
2018-07-22T00:20:23.571Z,0.00
2018-07-22T00:21:24.604Z,0.00
2018-07-22T00:22:23.552Z,0.00
2018-07-22T00:23:23.513Z,0.00
2018-07-22T00:24:23.501Z,0.00
2018-07-22T00:25:23.473Z,0.00
2018-07-22T00:27:02.913Z,0.00
2018-07-22T00:27:23.460Z,0.00
2018-07-22T00:28:54.597Z,0.00
2018-07-22T00:29:23.567Z,0.00
2018-07-22T00:30:23.558Z,0.00
2018-07-22T00:31:23.472Z,0.00
2018-07-22T00:32:42.872Z,0.00
2018-07-22T00:33:24.344Z,0.00
2018-07-22T00:34:24.445Z,0.00
2018-07-22T00:35:25.340Z,0.00
2018-07-22T00:36:24.360Z,0.00
2018-07-22T00:37:23.855Z,0.00
2018-07-22T00:38:24.339Z,0.00
2018-07-22T00:39:23.315Z,0.00
2018-07-22T00:40:24.314Z,0.00
2018-07-22T00:42:30.806Z,0.00
2018-07-22T00:43:31.439Z,0.00
2018-07-22T00:44:30.721Z,0.00
2018-07-22T00:45:30.739Z,0.00
2018-07-22T00:46:30.638Z,0.00
2018-07-22T00:47:30.603Z,0.00
2018-07-22T00:48:30.659Z,0.00
2018-07-22T00:49:30.576Z,0.00
2018-07-22T00:50:30.573Z,0.00
2018-07-22T00:51:30.576Z,0.00
2018-07-22T00:52:31.320Z,0.00
2018-07-22T00:54:43.934Z,0.00
2018-07-22T00:55:43.875Z,0.00
2018-07-22T00:56:43.903Z,0.00
2018-07-22T00:57:43.998Z,0.00
2018-07-22T00:58:44.122Z,0.00
2018-07-22T00:59:43.730Z,0.00
2018-07-22T01:00:43.833Z,0.00
2018-07-22T01:01:43.737Z,0.00
2018-07-22T01:02:43.719Z,0.00
2018-07-22T01:03:43.716Z,0.00
2018-07-22T01:04:43.700Z,0.00
2018-07-22T01:05:43.647Z,0.00
2018-07-22T01:06:43.660Z,0.00
2018-07-22T01:07:44.497Z,0.00
2018-07-22T01:08:43.644Z,0.00
2018-07-22T01:09:43.611Z,0.00
2018-07-22T01:10:43.633Z,0.00
2018-07-22T01:11:43.585Z,0.00
2018-07-22T01:12:43.629Z,0.00
2018-07-22T01:13:44.480Z,0.00
2018-07-22T01:14:43.539Z,0.00
2018-07-22T01:15:43.585Z,0.00
2018-07-22T01:16:43.536Z,0.00
2018-07-22T01:17:43.522Z,0.00
2018-07-22T01:18:43.576Z,0.00
2018-07-22T01:19:43.549Z,0.00
2018-07-22T01:20:43.508Z,0.00
2018-07-22T01:21:43.482Z,0.00
2018-07-22T01:22:43.521Z,0.00
2018-07-22T01:23:43.461Z,0.00
2018-07-22T01:24:43.435Z,0.00
2018-07-22T01:25:43.460Z,0.00
2018-07-22T01:26:44.520Z,0.00
2018-07-22T01:27:43.416Z,0.00
2018-07-22T01:28:43.396Z,0.00
2018-07-22T01:29:43.390Z,0.00
2018-07-22T01:30:43.367Z,0.00
2018-07-22T01:31:43.378Z,0.00
2018-07-22T01:32:43.391Z,0.00
2018-07-22T01:33:43.366Z,0.00
2018-07-22T01:34:43.351Z,0.00
2018-07-22T01:35:43.328Z,0.00
2018-07-22T01:36:43.302Z,0.00
2018-07-22T01:37:43.966Z,0.00
2018-07-22T01:38:44.011Z,0.00
2018-07-22T01:39:43.265Z,0.00
2018-07-22T01:40:43.307Z,0.00
2018-07-22T01:42:57.257Z,0.00
2018-07-22T01:43:57.319Z,0.00
2018-07-22T01:44:57.263Z,0.00
2018-07-22T01:45:57.703Z,0.00
2018-07-22T01:46:56.936Z,0.00
2018-07-22T01:47:56.962Z,0.00
2018-07-22T01:48:56.971Z,0.00
2018-07-22T01:49:56.968Z,0.00
2018-07-22T01:50:56.992Z,0.00
2018-07-22T01:51:56.979Z,0.00
2018-07-22T01:52:56.887Z,0.00
2018-07-22T01:53:56.870Z,0.00
2018-07-22T01:54:56.874Z,0.00
2018-07-22T01:55:56.855Z,0.00
2018-07-22T01:56:56.881Z,0.00
2018-07-22T01:57:56.835Z,0.00
2018-07-22T01:58:56.819Z,0.00
2018-07-22T01:59:56.868Z,0.00
2018-07-22T02:00:56.819Z,0.00
2018-07-22T02:01:56.845Z,0.00
2018-07-22T02:02:56.776Z,0.00
2018-07-22T02:03:56.789Z,0.00
2018-07-22T02:04:56.840Z,0.00
2018-07-22T02:05:56.769Z,0.00
2018-07-22T02:06:56.729Z,0.00
2018-07-22T02:07:56.757Z,0.00
2018-07-22T02:08:56.691Z,0.00
2018-07-22T02:09:56.713Z,0.00
2018-07-22T02:10:56.695Z,0.00
2018-07-22T02:11:56.704Z,0.00
2018-07-22T02:12:56.659Z,0.00
2018-07-22T02:13:56.664Z,0.00
2018-07-22T02:14:56.619Z,0.00
2018-07-22T02:15:57.143Z,0.00
2018-07-22T02:16:56.654Z,0.00
2018-07-22T02:17:56.636Z,0.00
2018-07-22T02:18:56.595Z,0.00
2018-07-22T02:19:56.582Z,0.00
2018-07-22T02:20:56.637Z,0.00
2018-07-22T02:21:56.616Z,0.00
2018-07-22T02:22:56.553Z,0.00
2018-07-22T02:23:56.526Z,0.00
2018-07-22T02:24:56.557Z,0.00
2018-07-22T02:25:56.505Z,0.00
2018-07-22T02:26:56.480Z,0.00
2018-07-22T02:27:56.485Z,0.00
2018-07-22T02:28:56.489Z,0.00
2018-07-22T02:29:56.445Z,0.00
2018-07-22T02:30:56.442Z,0.00
2018-07-22T02:31:56.428Z,0.00
2018-07-22T02:32:57.196Z,0.00
2018-07-22T02:33:56.416Z,0.00
2018-07-22T02:34:56.405Z,0.00
2018-07-22T02:35:57.383Z,0.00
2018-07-22T02:36:56.376Z,0.00
2018-07-22T02:37:57.405Z,0.00
2018-07-22T02:38:56.354Z,0.00
2018-07-22T02:39:56.333Z,0.00
2018-07-22T02:40:56.331Z,0.00
2018-07-22T02:41:56.375Z,0.00
2018-07-22T02:42:56.313Z,0.00
2018-07-22T02:43:56.320Z,0.00
2018-07-22T02:44:56.353Z,0.00
2018-07-22T02:45:56.262Z,0.00
2018-07-22T02:46:56.247Z,0.00
2018-07-22T02:47:56.242Z,0.00
2018-07-22T02:48:56.277Z,0.00
2018-07-22T02:49:56.221Z,0.00
2018-07-22T02:50:56.247Z,0.00
2018-07-22T02:51:56.187Z,0.00
2018-07-22T02:52:56.229Z,0.00
2018-07-22T02:53:56.187Z,0.00
2018-07-22T02:54:56.207Z,0.00
2018-07-22T02:55:56.200Z,0.00
2018-07-22T02:56:56.145Z,0.00
2018-07-22T02:57:56.133Z,0.00
2018-07-22T02:58:56.113Z,0.00
2018-07-22T02:59:56.139Z,0.00
2018-07-22T03:00:56.101Z,0.00
2018-07-22T03:01:56.105Z,0.00
2018-07-22T03:02:56.150Z,0.00
2018-07-22T03:03:56.059Z,0.00
2018-07-22T03:04:56.054Z,0.00
2018-07-22T03:05:56.112Z,0.00
2018-07-22T03:06:56.034Z,0.00
2018-07-22T03:07:56.019Z,0.00
2018-07-22T03:08:55.995Z,0.00
2018-07-22T03:09:56.017Z,0.00
2018-07-22T03:10:55.975Z,0.00
2018-07-22T03:11:56.005Z,0.00
2018-07-22T03:12:55.963Z,0.00
2018-07-22T03:13:55.961Z,0.00
2018-07-22T03:14:55.938Z,0.00
2018-07-22T03:15:55.921Z,0.00
2018-07-22T03:16:55.929Z,0.00
2018-07-22T03:17:55.901Z,0.00
2018-07-22T03:18:55.893Z,0.00
2018-07-22T03:19:55.870Z,0.00
2018-07-22T03:20:55.867Z,0.00
2018-07-22T03:21:55.920Z,0.00
2018-07-22T03:22:55.839Z,0.00
2018-07-22T03:23:55.826Z,0.00
2018-07-22T03:24:55.840Z,0.00
2018-07-22T03:25:55.816Z,0.00
2018-07-22T03:26:55.803Z,0.00
2018-07-22T03:27:55.807Z,0.00
2018-07-22T03:28:55.792Z,0.00
2018-07-22T03:29:55.789Z,0.00
2018-07-22T03:30:55.747Z,0.00
2018-07-22T03:31:55.731Z,0.00
2018-07-22T03:32:55.729Z,0.00
2018-07-22T03:33:55.740Z,0.00
2018-07-22T03:34:55.736Z,0.00
2018-07-22T03:35:55.711Z,0.00
2018-07-22T03:36:55.677Z,0.00
2018-07-22T03:37:55.695Z,0.00
2018-07-22T03:38:55.720Z,0.00
2018-07-22T03:39:55.643Z,0.00
2018-07-22T03:40:55.644Z,0.00
2018-07-22T03:41:55.698Z,0.00
2018-07-22T03:42:55.617Z,0.00
2018-07-22T03:43:55.707Z,0.00
2018-07-22T03:44:55.604Z,0.00
2018-07-22T03:45:55.638Z,0.00
2018-07-22T03:46:55.610Z,0.00
2018-07-22T03:47:55.566Z,0.00
2018-07-22T03:48:55.550Z,0.00
2018-07-22T03:49:55.597Z,0.00
2018-07-22T03:50:55.523Z,0.00
2018-07-22T03:51:55.519Z,0.00
2018-07-22T03:52:55.526Z,0.00
2018-07-22T03:53:55.510Z,0.00
2018-07-22T03:54:55.472Z,0.00
2018-07-22T03:55:55.567Z,5.62
2018-07-22T03:56:55.601Z,5.62
2018-07-22T03:57:56.218Z,5.62
2018-07-22T03:58:55.449Z,5.62
2018-07-22T03:59:55.426Z,5.62
2018-07-22T04:00:55.423Z,5.62
2018-07-22T04:01:55.409Z,5.62
2018-07-22T04:02:55.383Z,5.62
2018-07-22T04:03:55.371Z,5.62
2018-07-22T04:04:55.389Z,5.62
2018-07-22T04:06:09.371Z,5.62
2018-07-22T04:06:55.597Z,5.62
2018-07-22T04:07:56.386Z,5.62
2018-07-22T04:08:55.459Z,5.62
2018-07-22T04:09:55.393Z,5.62
2018-07-22T04:10:57.237Z,5.62
2018-07-22T04:11:55.288Z,5.62
2018-07-22T04:12:56.275Z,5.62
2018-07-22T04:13:55.264Z,5.62
2018-07-22T04:14:55.285Z,5.62
2018-07-22T04:15:55.289Z,5.62
2018-07-22T04:16:55.234Z,5.62
2018-07-22T04:17:55.229Z,5.62
2018-07-22T04:18:55.258Z,5.62
2018-07-22T04:19:55.736Z,11.25
2018-07-22T04:20:55.223Z,11.25
2018-07-22T04:21:55.774Z,11.25
2018-07-22T04:22:55.167Z,11.25
2018-07-22T04:23:55.166Z,11.25
2018-07-22T04:24:55.181Z,11.25
2018-07-22T04:25:55.128Z,11.25
2018-07-22T04:26:55.148Z,11.25
2018-07-22T04:27:55.121Z,11.25
2018-07-22T04:28:55.084Z,11.25
2018-07-22T04:29:55.725Z,11.25
2018-07-22T04:30:55.147Z,11.25
2018-07-22T04:31:55.136Z,11.25
2018-07-22T04:32:55.091Z,11.25
2018-07-22T04:33:55.122Z,11.25
2018-07-22T04:34:55.023Z,11.25
2018-07-22T04:35:55.122Z,11.25
2018-07-22T04:36:55.000Z,11.25
2018-07-22T04:37:54.994Z,11.25
2018-07-22T04:38:55.044Z,11.25
2018-07-22T04:39:54.969Z,11.25
2018-07-22T04:40:55.012Z,11.25
2018-07-22T04:41:55.706Z,11.25
2018-07-22T04:42:54.935Z,11.25
2018-07-22T04:43:55.764Z,11.25
2018-07-22T04:44:54.903Z,11.25
2018-07-22T04:45:54.970Z,11.25
2018-07-22T04:46:54.888Z,11.25
2018-07-22T04:47:54.901Z,16.88
2018-07-22T04:48:54.900Z,16.88
2018-07-22T04:49:54.889Z,16.88
2018-07-22T04:50:54.838Z,11.25
2018-07-22T04:51:54.854Z,11.25
2018-07-22T04:52:54.811Z,16.88
2018-07-22T04:53:54.806Z,16.88
2018-07-22T04:54:54.820Z,16.88
2018-07-22T04:55:54.816Z,16.88
2018-07-22T04:56:54.777Z,16.88
2018-07-22T04:57:54.749Z,16.88
2018-07-22T04:58:54.820Z,16.88
2018-07-22T04:59:54.741Z,16.88
2018-07-22T05:00:54.756Z,16.88
2018-07-22T05:01:54.716Z,16.88
2018-07-22T05:02:54.702Z,16.88
2018-07-22T05:03:54.684Z,16.88
2018-07-22T05:04:54.703Z,16.88
2018-07-22T05:05:54.708Z,16.88
2018-07-22T05:06:54.653Z,16.88
2018-07-22T05:07:54.657Z,22.50
2018-07-22T05:08:54.643Z,22.50
2018-07-22T05:09:54.624Z,22.50
2018-07-22T05:10:54.658Z,22.50
2018-07-22T05:11:54.628Z,22.50
2018-07-22T05:12:54.610Z,22.50
2018-07-22T05:13:54.579Z,22.50
2018-07-22T05:14:54.602Z,22.50
2018-07-22T05:15:54.551Z,22.50
2018-07-22T05:16:54.534Z,22.50
2018-07-22T05:17:54.598Z,22.50
2018-07-22T05:18:54.529Z,22.50
2018-07-22T05:19:54.531Z,22.50
2018-07-22T05:20:54.499Z,22.50
2018-07-22T05:21:54.484Z,22.50
2018-07-22T05:22:54.498Z,22.50
2018-07-22T05:23:54.477Z,22.50
2018-07-22T05:24:54.446Z,28.12
2018-07-22T05:25:54.485Z,28.12
2018-07-22T05:26:55.428Z,28.12
2018-07-22T05:27:55.200Z,28.12
2018-07-22T05:28:54.412Z,28.12
2018-07-22T05:29:54.440Z,28.12
2018-07-22T05:30:54.378Z,28.12
2018-07-22T05:31:54.376Z,28.12
2018-07-22T05:32:54.358Z,28.12
2018-07-22T05:33:54.382Z,28.12
2018-07-22T05:34:54.368Z,28.12
2018-07-22T05:35:54.337Z,28.12
2018-07-22T05:36:54.316Z,28.12
2018-07-22T05:37:54.311Z,28.12
2018-07-22T05:38:54.364Z,28.12
2018-07-22T05:39:54.500Z,33.75
2018-07-22T05:40:54.300Z,33.75
2018-07-22T05:41:54.322Z,33.75
2018-07-22T05:42:54.262Z,33.75
2018-07-22T05:43:54.239Z,33.75
2018-07-22T05:44:54.290Z,33.75
2018-07-22T05:45:54.211Z,33.75
2018-07-22T05:46:54.208Z,33.75
2018-07-22T05:47:54.259Z,33.75
2018-07-22T05:48:54.196Z,33.75
2018-07-22T05:49:54.196Z,33.75
2018-07-22T05:50:54.180Z,33.75
2018-07-22T05:51:54.150Z,33.75
2018-07-22T05:52:54.149Z,33.75
2018-07-22T05:53:54.231Z,33.75
2018-07-22T05:54:54.148Z,33.75
2018-07-22T05:55:54.131Z,33.75
2018-07-22T05:56:54.098Z,33.75
2018-07-22T05:57:55.098Z,33.75
2018-07-22T05:58:54.068Z,33.75
2018-07-22T05:59:55.759Z,33.75
2018-07-22T06:00:54.052Z,33.75
2018-07-22T06:01:54.058Z,33.75
2018-07-22T06:02:54.042Z,33.75
2018-07-22T06:03:54.020Z,33.75
2018-07-22T06:04:54.004Z,33.75
2018-07-22T06:05:54.010Z,33.75
2018-07-22T06:06:54.007Z,33.75
2018-07-22T06:07:53.966Z,33.75
2018-07-22T06:08:53.956Z,33.75
2018-07-22T06:09:53.959Z,33.75
2018-07-22T06:10:54.072Z,33.75
2018-07-22T06:11:53.989Z,33.75
2018-07-22T06:12:53.959Z,33.75
2018-07-22T06:13:53.900Z,33.75
2018-07-22T06:14:53.895Z,39.38
2018-07-22T06:15:53.932Z,39.38
2018-07-22T06:16:53.933Z,39.38
2018-07-22T06:17:53.896Z,39.38
2018-07-22T06:18:53.860Z,39.38
2018-07-22T06:19:53.836Z,39.38
2018-07-22T06:20:53.870Z,39.38
2018-07-22T06:21:53.873Z,39.38
2018-07-22T06:22:53.802Z,45.00
2018-07-22T06:23:53.890Z,45.00
2018-07-22T06:24:53.811Z,45.00
2018-07-22T06:25:53.769Z,45.00
2018-07-22T06:26:53.767Z,45.00
2018-07-22T06:27:53.734Z,45.00
2018-07-22T06:28:53.765Z,45.00
2018-07-22T06:29:53.710Z,45.00
2018-07-22T06:30:53.715Z,50.62
2018-07-22T06:31:53.726Z,50.62
2018-07-22T06:32:53.678Z,50.62
2018-07-22T06:33:53.702Z,50.62
2018-07-22T06:35:09.407Z,50.62
2018-07-22T06:35:53.713Z,50.62
2018-07-22T06:36:53.685Z,50.62
2018-07-22T06:37:53.689Z,50.62
2018-07-22T06:38:53.621Z,56.25
2018-07-22T06:39:53.644Z,56.25
2018-07-22T06:40:53.603Z,56.25
2018-07-22T06:43:05.013Z,56.25
2018-07-22T06:44:04.924Z,56.25
2018-07-22T06:45:04.950Z,61.88
2018-07-22T06:46:05.014Z,61.88
2018-07-22T06:47:04.940Z,61.88
2018-07-22T06:48:04.937Z,61.88
2018-07-22T06:49:04.874Z,61.88
2018-07-22T06:50:04.852Z,61.88
2018-07-22T06:51:04.849Z,61.88
2018-07-22T06:52:04.822Z,67.50
2018-07-22T06:53:04.853Z,67.50
2018-07-22T06:54:35.670Z,67.50
2018-07-22T06:55:05.728Z,67.50
2018-07-22T06:56:04.880Z,67.50
2018-07-22T06:58:14.596Z,67.50
2018-07-22T06:59:14.556Z,67.50
2018-07-22T07:00:14.520Z,67.50
2018-07-22T07:01:14.581Z,73.12
2018-07-22T07:02:14.464Z,73.12
2018-07-22T07:03:14.480Z,73.12
2018-07-22T07:04:14.451Z,73.12
2018-07-22T07:05:14.479Z,73.12
2018-07-22T07:06:14.477Z,73.12
2018-07-22T07:07:14.417Z,73.12
2018-07-22T07:08:14.408Z,73.12
2018-07-22T07:09:14.374Z,73.12
2018-07-22T07:10:14.369Z,73.12
2018-07-22T07:11:14.359Z,73.12
2018-07-22T07:13:30.323Z,73.12
2018-07-22T07:14:25.827Z,73.12
2018-07-22T07:15:25.872Z,73.12
2018-07-22T07:16:25.814Z,73.12
2018-07-22T07:17:25.803Z,73.12
2018-07-22T07:18:25.822Z,73.12
2018-07-22T07:19:26.734Z,73.12
2018-07-22T07:20:25.750Z,73.12
2018-07-22T07:21:25.743Z,73.12
2018-07-22T07:22:25.720Z,73.12
2018-07-22T07:23:25.723Z,73.12
2018-07-22T07:24:25.759Z,73.12
2018-07-22T07:25:25.818Z,73.12
2018-07-22T07:26:25.705Z,73.12
2018-07-22T07:28:37.238Z,78.75
2018-07-22T07:29:37.221Z,78.75
2018-07-22T07:30:37.191Z,78.75
2018-07-22T07:31:37.162Z,78.75
2018-07-22T07:32:37.121Z,78.75
2018-07-22T07:33:37.218Z,78.75
2018-07-22T07:34:37.221Z,78.75
2018-07-22T07:35:37.099Z,84.38
2018-07-22T07:36:37.071Z,84.38
2018-07-22T07:37:37.086Z,90.00
2018-07-22T07:38:37.067Z,90.00
2018-07-22T07:39:37.078Z,90.00
2018-07-22T07:40:37.028Z,90.00
2018-07-22T07:41:37.040Z,90.00
2018-07-22T07:43:48.470Z,90.00
2018-07-22T07:44:48.411Z,95.62
2018-07-22T07:45:48.375Z,95.62
2018-07-22T07:46:48.425Z,95.62
2018-07-22T07:47:48.362Z,95.62
2018-07-22T07:48:48.365Z,101.25
2018-07-22T07:49:48.320Z,101.25
2018-07-22T07:50:48.357Z,101.25
2018-07-22T07:51:48.345Z,101.25
2018-07-22T07:52:48.298Z,101.25
2018-07-22T07:53:48.301Z,101.25
2018-07-22T07:54:48.276Z,101.25
2018-07-22T07:55:48.981Z,106.88
2018-07-22T07:56:48.310Z,106.88
2018-07-22T07:57:48.238Z,106.88
2018-07-22T07:58:48.273Z,106.88
2018-07-22T07:59:48.214Z,106.88
2018-07-22T08:00:48.226Z,106.88
2018-07-22T08:01:48.338Z,106.88
2018-07-22T08:02:48.196Z,106.88
2018-07-22T08:03:48.203Z,106.88
2018-07-22T08:04:48.204Z,106.88
2018-07-22T08:05:48.175Z,112.50
2018-07-22T08:06:48.166Z,112.50
2018-07-22T08:07:48.137Z,112.50
2018-07-22T08:08:48.129Z,112.50
2018-07-22T08:09:48.124Z,112.50
2018-07-22T08:10:48.142Z,106.88
2018-07-22T08:11:48.138Z,112.50
2018-07-22T08:12:48.085Z,106.88
2018-07-22T08:13:48.085Z,101.25
2018-07-22T08:14:48.128Z,101.25
2018-07-22T08:15:48.047Z,101.25
2018-07-22T08:16:48.064Z,101.25
2018-07-22T08:17:48.013Z,101.25
2018-07-22T08:18:48.051Z,106.88
2018-07-22T08:19:48.043Z,106.88
2018-07-22T08:20:47.968Z,112.50
2018-07-22T08:21:48.143Z,118.12
2018-07-22T08:22:47.944Z,106.88
2018-07-22T08:23:47.968Z,118.12
2018-07-22T08:24:47.922Z,118.12
2018-07-22T08:25:47.962Z,112.50
2018-07-22T08:26:47.910Z,106.88
2018-07-22T08:28:59.298Z,106.88
2018-07-22T08:29:59.295Z,106.88
2018-07-22T08:30:59.257Z,106.88
2018-07-22T08:31:59.254Z,101.25
2018-07-22T08:32:59.255Z,95.62
2018-07-22T08:33:59.238Z,90.00
2018-07-22T08:34:59.214Z,90.00
2018-07-22T08:35:59.202Z,90.00
2018-07-22T08:36:59.195Z,95.62
2018-07-22T08:37:59.227Z,95.62
2018-07-22T08:38:59.154Z,101.25
2018-07-22T08:39:59.164Z,101.25
2018-07-22T08:40:59.170Z,101.25
2018-07-22T08:41:59.228Z,101.25
2018-07-22T08:44:10.764Z,101.25
2018-07-22T08:45:10.703Z,101.25
2018-07-22T08:46:10.682Z,101.25
2018-07-22T08:47:10.717Z,101.25
2018-07-22T08:48:10.731Z,90.00
2018-07-22T08:49:10.621Z,101.25
2018-07-22T08:50:10.636Z,101.25
2018-07-22T08:51:10.600Z,101.25
2018-07-22T08:52:10.593Z,106.88
2018-07-22T08:53:10.656Z,106.88
2018-07-22T08:54:11.522Z,101.25
2018-07-22T08:55:10.566Z,101.25
2018-07-22T08:56:10.558Z,101.25
2018-07-22T08:57:10.544Z,106.88
2018-07-22T08:59:21.871Z,101.25
2018-07-22T09:00:21.807Z,101.25
2018-07-22T09:01:21.880Z,95.62
2018-07-22T09:02:21.811Z,101.25
2018-07-22T09:03:21.833Z,101.25
2018-07-22T09:04:21.774Z,101.25
2018-07-22T09:05:21.783Z,90.00
2018-07-22T09:06:21.742Z,106.88
2018-07-22T09:07:21.717Z,101.25
2018-07-22T09:08:21.744Z,101.25
2018-07-22T09:09:21.715Z,101.25
2018-07-22T09:10:21.754Z,101.25
2018-07-22T09:11:21.696Z,101.25
2018-07-22T09:12:21.657Z,101.25
2018-07-22T09:14:33.243Z,106.88
2018-07-22T09:15:33.035Z,106.88
2018-07-22T09:16:33.022Z,106.88
2018-07-22T09:17:32.942Z,106.88
2018-07-22T09:18:33.002Z,106.88
2018-07-22T09:19:32.952Z,101.25
2018-07-22T09:20:32.969Z,95.62
2018-07-22T09:21:32.930Z,90.00
2018-07-22T09:22:32.887Z,90.00
2018-07-22T09:23:32.909Z,95.62
2018-07-22T09:24:32.900Z,95.62
2018-07-22T09:25:32.918Z,95.62
2018-07-22T09:26:32.849Z,101.25
2018-07-22T09:28:58.853Z,90.00
2018-07-22T09:29:57.194Z,84.38
2018-07-22T09:30:57.179Z,90.00
2018-07-22T09:31:57.214Z,95.62
2018-07-22T09:32:57.175Z,95.62
2018-07-22T09:33:57.135Z,101.25
2018-07-22T09:34:57.131Z,101.25
2018-07-22T09:35:57.198Z,95.62
2018-07-22T09:36:57.111Z,95.62
2018-07-22T09:37:57.140Z,95.62
2018-07-22T09:38:57.085Z,90.00
2018-07-22T09:39:57.135Z,95.62
2018-07-22T09:40:57.089Z,78.75
2018-07-22T09:41:57.128Z,84.38
2018-07-22T09:44:08.649Z,84.38
2018-07-22T09:45:08.587Z,90.00
2018-07-22T09:46:08.572Z,95.62
2018-07-22T09:47:08.596Z,101.25
2018-07-22T09:48:08.613Z,101.25
2018-07-22T09:49:08.616Z,95.62
2018-07-22T09:50:08.581Z,95.62
2018-07-22T09:51:08.553Z,90.00
2018-07-22T09:52:08.508Z,84.38
2018-07-22T09:53:08.537Z,78.75
2018-07-22T09:54:08.506Z,78.75
2018-07-22T09:55:08.457Z,78.75
2018-07-22T09:56:08.471Z,84.38
2018-07-22T09:57:08.441Z,84.38
2018-07-22T09:59:20.183Z,84.38
2018-07-22T10:00:20.087Z,84.38
2018-07-22T10:01:20.072Z,95.62
2018-07-22T10:02:20.000Z,106.88
2018-07-22T10:03:20.068Z,112.50
2018-07-22T10:04:20.020Z,106.88
2018-07-22T10:05:20.017Z,101.25
2018-07-22T10:06:20.010Z,90.00
2018-07-22T10:07:19.975Z,73.12
2018-07-22T10:08:20.843Z,73.12
2018-07-22T10:09:19.916Z,73.12
2018-07-22T10:10:20.146Z,73.12
2018-07-22T10:11:19.986Z,73.12
2018-07-22T10:12:19.938Z,73.12
2018-07-22T10:14:31.357Z,78.75
2018-07-22T10:15:31.155Z,84.38
2018-07-22T10:16:31.173Z,90.00
2018-07-22T10:17:31.103Z,95.62
2018-07-22T10:18:31.121Z,106.88
2018-07-22T10:19:31.083Z,101.25
2018-07-22T10:20:31.132Z,95.62
2018-07-22T10:21:31.049Z,95.62
2018-07-22T10:22:31.050Z,95.62
2018-07-22T10:23:31.071Z,95.62
2018-07-22T10:24:31.044Z,95.62
2018-07-22T10:25:32.907Z,112.50
2018-07-22T10:26:31.049Z,118.12
2018-07-22T10:27:30.982Z,129.38
2018-07-22T10:29:40.762Z,129.38
2018-07-22T10:30:40.953Z,129.38
2018-07-22T10:31:40.715Z,106.88
2018-07-22T10:32:40.684Z,95.62
2018-07-22T10:33:40.761Z,118.12
2018-07-22T10:34:40.692Z,112.50
2018-07-22T10:35:41.466Z,123.75
2018-07-22T10:36:40.875Z,118.12
2018-07-22T10:37:40.754Z,118.12
2018-07-22T10:38:40.653Z,129.38
2018-07-22T10:39:40.616Z,129.38
2018-07-22T10:40:40.658Z,118.12
2018-07-22T10:41:40.580Z,135.00
2018-07-22T10:42:40.666Z,112.50
2018-07-22T10:45:20.214Z,123.75
2018-07-22T10:45:53.250Z,95.62
2018-07-22T10:46:53.742Z,95.62
2018-07-22T10:47:53.234Z,95.62
2018-07-22T10:48:53.171Z,101.25
2018-07-22T10:49:53.130Z,101.25
2018-07-22T10:50:53.144Z,101.25
2018-07-22T10:51:53.107Z,106.88
2018-07-22T10:52:53.249Z,112.50
2018-07-22T10:53:53.115Z,118.12
2018-07-22T10:54:53.063Z,118.12
2018-07-22T10:55:53.051Z,123.75
2018-07-22T10:56:53.084Z,118.12
2018-07-22T10:57:53.045Z,112.50
2018-07-22T10:58:53.017Z,123.75
2018-07-22T10:59:53.023Z,118.12
2018-07-22T11:00:54.017Z,123.75
2018-07-22T11:01:52.972Z,123.75
2018-07-22T11:02:52.989Z,118.12
2018-07-22T11:03:52.965Z,112.50
2018-07-22T11:04:53.071Z,112.50
2018-07-22T11:05:52.931Z,112.50
2018-07-22T11:06:52.992Z,112.50
2018-07-22T11:07:52.901Z,118.12
2018-07-22T11:08:52.962Z,123.75
2018-07-22T11:09:52.934Z,123.75
2018-07-22T11:10:52.951Z,118.12
2018-07-22T11:11:52.861Z,112.50
2018-07-22T11:12:52.915Z,101.25
2018-07-22T11:13:52.883Z,101.25
2018-07-22T11:14:52.898Z,95.62
2018-07-22T11:15:52.886Z,90.00
2018-07-22T11:16:52.799Z,90.00
2018-07-22T11:17:52.789Z,95.62
2018-07-22T11:18:52.804Z,95.62
2018-07-22T11:19:52.771Z,101.25
2018-07-22T11:20:52.812Z,101.25
2018-07-22T11:21:52.854Z,95.62
2018-07-22T11:22:52.761Z,78.75
2018-07-22T11:23:52.738Z,67.50
2018-07-22T11:24:52.721Z,61.88
2018-07-22T11:25:52.715Z,50.62
2018-07-22T11:26:52.724Z,45.00
2018-07-22T11:27:52.683Z,45.00
2018-07-22T11:28:52.805Z,45.00
2018-07-22T11:29:52.662Z,45.00
2018-07-22T11:30:52.666Z,45.00
2018-07-22T11:31:52.656Z,39.38
2018-07-22T11:32:52.649Z,39.38
2018-07-22T11:33:52.615Z,33.75
2018-07-22T11:34:52.617Z,33.75
2018-07-22T11:35:52.609Z,33.75
2018-07-22T11:36:52.576Z,33.75
2018-07-22T11:37:52.582Z,39.38
2018-07-22T11:38:52.554Z,39.38
2018-07-22T11:39:52.555Z,45.00
2018-07-22T11:40:52.536Z,45.00
2018-07-22T11:41:52.527Z,50.62
2018-07-22T11:42:52.532Z,56.25
2018-07-22T11:43:52.536Z,56.25
2018-07-22T11:44:52.487Z,61.88
2018-07-22T11:45:52.482Z,67.50
2018-07-22T11:46:52.494Z,73.12
2018-07-22T11:47:53.056Z,73.12
2018-07-22T11:48:52.439Z,78.75
2018-07-22T11:49:52.425Z,84.38
2018-07-22T11:50:52.437Z,84.38
2018-07-22T11:51:52.403Z,90.00
2018-07-22T11:52:52.406Z,95.62
2018-07-22T11:53:52.416Z,95.62
2018-07-22T11:54:52.379Z,95.62
2018-07-22T11:55:52.372Z,95.62
2018-07-22T11:56:52.361Z,101.25
2018-07-22T11:57:52.341Z,101.25
2018-07-22T11:58:52.335Z,101.25
2018-07-22T11:59:52.354Z,101.25
2018-07-22T12:00:52.308Z,101.25
2018-07-22T12:01:52.299Z,106.88
2018-07-22T12:02:52.286Z,112.50
2018-07-22T12:03:52.295Z,112.50
2018-07-22T12:04:52.272Z,118.12
2018-07-22T12:05:52.315Z,129.38
2018-07-22T12:06:52.254Z,129.38
2018-07-22T12:07:52.234Z,118.12
2018-07-22T12:08:52.286Z,118.12
2018-07-22T12:09:52.209Z,106.88
2018-07-22T12:10:52.200Z,106.88
2018-07-22T12:11:52.213Z,101.25
2018-07-22T12:12:52.185Z,101.25
2018-07-22T12:13:52.193Z,95.62
2018-07-22T12:14:52.216Z,90.00
2018-07-22T12:15:52.141Z,84.38
2018-07-22T12:16:53.159Z,84.38
2018-07-22T12:17:52.124Z,84.38
2018-07-22T12:18:53.113Z,84.38
2018-07-22T12:19:52.115Z,84.38
2018-07-22T12:20:52.624Z,84.38
2018-07-22T12:22:03.110Z,84.38
2018-07-22T12:22:52.132Z,84.38
2018-07-22T12:23:52.075Z,84.38
2018-07-22T12:24:52.170Z,84.38
2018-07-22T12:25:52.040Z,90.00
2018-07-22T12:26:52.021Z,90.00
2018-07-22T12:27:52.011Z,84.38
2018-07-22T12:30:03.338Z,90.00
2018-07-22T12:31:03.280Z,95.62
2018-07-22T12:32:03.241Z,95.62
2018-07-22T12:33:03.335Z,101.25
2018-07-22T12:34:03.203Z,95.62
2018-07-22T12:35:03.228Z,101.25
2018-07-22T12:36:03.245Z,101.25
2018-07-22T12:37:03.167Z,101.25
2018-07-22T12:38:03.153Z,84.38
2018-07-22T12:39:03.144Z,78.75
2018-07-22T12:40:03.200Z,73.12
2018-07-22T12:41:03.127Z,73.12
2018-07-22T12:42:03.143Z,78.75
2018-07-22T12:43:03.099Z,78.75
2018-07-22T12:45:14.322Z,95.62
2018-07-22T12:46:14.256Z,95.62
2018-07-22T12:47:14.300Z,112.50
2018-07-22T12:48:14.254Z,112.50
2018-07-22T12:49:14.230Z,112.50
2018-07-22T12:50:36.087Z,95.62
2018-07-22T12:51:14.285Z,90.00
2018-07-22T12:52:14.213Z,90.00
2018-07-22T12:53:14.177Z,112.50
2018-07-22T12:54:14.158Z,95.62
2018-07-22T12:55:14.145Z,84.38
2018-07-22T12:56:14.206Z,84.38
2018-07-22T12:57:14.207Z,90.00
2018-07-22T12:59:25.501Z,95.62
2018-07-22T13:00:25.479Z,118.12
2018-07-22T13:01:25.427Z,112.50
2018-07-22T13:02:25.458Z,112.50
2018-07-22T13:03:25.441Z,112.50
2018-07-22T13:04:25.406Z,112.50
2018-07-22T13:05:25.412Z,101.25
2018-07-22T13:06:25.406Z,95.62
2018-07-22T13:07:25.374Z,95.62
2018-07-22T13:08:25.382Z,95.62
2018-07-22T13:09:25.348Z,95.62
2018-07-22T13:10:25.339Z,95.62
2018-07-22T13:11:25.312Z,95.62
2018-07-22T13:12:25.354Z,90.00
2018-07-22T13:14:36.607Z,101.25
2018-07-22T13:15:36.528Z,106.88
2018-07-22T13:16:36.502Z,106.88
2018-07-22T13:17:36.512Z,112.50
2018-07-22T13:18:36.500Z,112.50
2018-07-22T13:19:36.489Z,90.00
2018-07-22T13:20:36.470Z,112.50
2018-07-22T13:21:36.461Z,90.00